Time;durP1;ratioP1;P1;durP2;ratioP2;P2;SDS_P1;SDS_P2;PMS_P1;PMS_P2;Temp;Humidity;BMP_temperature;BMP_pressure;BME280_temperature;BME280_humidity;BME280_pressure;Samples;Min_cycle;Max_cycle;Signal;HPM_P1;HPM_P2
2022/10/09 00:01:10;;;;;;;6.77;3.20;;;;;;;12.66;65.82;101507.97;5028489;28;20222;-64
2022/10/09 00:03:40;;;;;;;7.00;3.00;;;;;;;12.63;65.79;101510.88;5028865;28;20237;-64
2022/10/09 00:06:11;;;;;;;8.23;3.10;;;;;;;12.62;65.89;101506.53;5026922;28;20254;-63
2022/10/09 00:08:39;;;;;;;7.00;3.07;;;;;;;12.58;65.65;101501.59;5023782;28;20223;-64
2022/10/09 00:11:09;;;;;;;8.30;2.60;;;;;;;12.54;66.04;101502.88;5027454;28;21249;-64
2022/10/09 00:13:37;;;;;;;6.33;2.83;;;;;;;12.54;66.02;101505.53;5028349;28;20212;-63
2022/10/09 00:16:07;;;;;;;7.57;2.90;;;;;;;12.52;66.27;101496.84;5033010;28;20209;-64
2022/10/09 00:18:36;;;;;;;7.20;2.90;;;;;;;12.49;66.19;101502.44;5030693;28;20213;-63
2022/10/09 00:21:04;;;;;;;10.50;3.50;;;;;;;12.44;66.32;101497.50;5031919;28;20716;-64
2022/10/09 00:23:33;;;;;;;5.20;2.70;;;;;;;12.39;66.86;101489.97;5029499;28;20284;-64
2022/10/09 00:26:02;;;;;;;5.80;2.80;;;;;;;12.35;66.83;101490.34;5029123;28;20333;-64
2022/10/09 00:28:30;;;;;;;11.80;3.50;;;;;;;12.31;67.00;101483.63;5027278;28;21200;-63
2022/10/09 00:31:05;;;;;;;6.03;3.30;;;;;;;12.29;67.04;101488.22;5027228;28;20278;-63
2022/10/09 00:33:33;;;;;;;7.80;2.90;;;;;;;12.33;67.13;101489.63;5028642;28;20240;-64
2022/10/09 00:36:03;;;;;;;7.27;3.40;;;;;;;12.33;66.71;101487.81;5034375;28;20282;-64
2022/10/09 00:38:30;;;;;;;7.33;3.63;;;;;;;12.31;66.92;101487.09;5030091;28;20201;-63
2022/10/09 00:40:59;;;;;;;8.97;3.30;;;;;;;12.29;67.02;101481.09;5032294;28;20223;-63
2022/10/09 00:43:40;;;;;;;8.67;3.17;;;;;;;12.31;67.10;101479.13;5031182;28;20274;-63
2022/10/09 00:46:18;;;;;;;8.10;3.10;;;;;;;12.33;66.70;101487.81;5029812;28;20208;-63
2022/10/09 00:48:51;;;;;;;7.87;2.90;;;;;;;12.33;66.78;101487.81;5026874;28;20315;-63
2022/10/09 00:51:19;;;;;;;4.33;2.90;;;;;;;12.29;66.88;101485.56;5034145;28;20669;-63
2022/10/09 00:53:47;;;;;;;8.07;3.73;;;;;;;12.23;66.68;101480.78;5029379;28;20221;-64
2022/10/09 00:56:16;;;;;;;6.23;2.87;;;;;;;12.27;66.25;101483.03;5028723;28;20207;-63
2022/10/09 00:58:44;;;;;;;7.03;2.90;;;;;;;12.32;66.23;101491.44;5029756;28;20244;-63
2022/10/09 01:01:12;;;;;;;6.60;2.70;;;;;;;12.34;65.88;101472.69;5028565;28;20246;-63
2022/10/09 01:03:40;;;;;;;16.83;3.57;;;;;;;12.28;66.13;101482.06;5029610;28;20327;-64
2022/10/09 01:06:17;;;;;;;7.63;3.20;;;;;;;12.16;66.78;101475.16;5028228;28;20699;-64
2022/10/09 01:08:50;;;;;;;8.60;3.20;;;;;;;12.15;66.93;101469.97;5027650;28;20257;-64
2022/10/09 01:11:34;;;;;;;12.33;3.40;;;;;;;12.18;66.49;101481.19;5025081;28;21984;-63
2022/10/09 01:14:10;;;;;;;8.40;3.10;;;;;;;12.05;67.15;101485.88;5029596;28;20212;-64
2022/10/09 01:16:44;;;;;;;9.67;3.03;;;;;;;12.06;67.31;101476.94;5032241;28;20247;-64
2022/10/09 01:19:22;;;;;;;7.63;3.20;;;;;;;12.07;67.32;101481.28;5026992;28;20257;-64
2022/10/09 01:22:02;;;;;;;10.13;3.27;;;;;;;12.06;66.88;101476.94;5030059;28;20236;-63
2022/10/09 01:24:36;;;;;;;8.00;3.27;;;;;;;12.05;67.27;101475.25;5027099;28;20212;-64
2022/10/09 01:27:15;;;;;;;8.30;2.83;;;;;;;12.06;67.01;101466.28;5027704;28;20203;-64
2022/10/09 01:29:45;;;;;;;5.13;2.77;;;;;;;12.05;66.98;101461.94;5025978;28;20249;-63
2022/10/09 01:32:18;;;;;;;8.57;2.90;;;;;;;12.00;66.99;101464.19;5030641;28;20223;-63
2022/10/09 01:34:47;;;;;;;9.40;2.97;;;;;;;11.99;67.08;101462.50;5027420;28;20251;-63
2022/10/09 01:37:17;;;;;;;7.13;2.80;;;;;;;11.99;66.82;101462.50;5028869;28;20648;-63
2022/10/09 01:39:46;;;;;;;6.70;3.10;;;;;;;12.06;66.54;101458.31;5029322;28;20208;-63
2022/10/09 01:42:16;;;;;;;5.33;2.83;;;;;;;12.13;66.30;101459.50;5025173;28;20822;-63
2022/10/09 01:44:44;;;;;;;11.87;2.83;;;;;;;12.15;66.27;101462.84;5028385;28;20200;-64
2022/10/09 01:47:15;;;;;;;11.40;2.90;;;;;;;12.23;65.80;101449.69;5035121;28;20208;-63
2022/10/09 01:49:51;;;;;;;16.63;3.07;;;;;;;12.21;65.69;101454.34;5026412;28;20205;-64
2022/10/09 01:52:32;;;;;;;10.03;3.20;;;;;;;12.15;65.81;101454.00;5030316;28;20208;-63
2022/10/09 01:55:18;;;;;;;6.77;2.67;;;;;;;12.10;65.94;101449.13;5033445;28;20807;-64
2022/10/09 01:57:52;;;;;;;5.57;2.73;;;;;;;12.07;66.12;101438.72;5033727;28;20207;-64
2022/10/09 02:00:21;;;;;;;6.20;2.93;;;;;;;12.04;65.94;101445.19;5030044;28;20208;-64
2022/10/09 02:02:49;;;;;;;15.13;3.20;;;;;;;11.99;66.03;101446.53;5035602;28;20208;-64
2022/10/09 02:05:21;;;;;;;8.73;3.40;;;;;;;12.01;66.31;101449.91;5033623;28;20209;-64
2022/10/09 02:07:49;;;;;;;9.43;2.63;;;;;;;12.00;66.17;101442.91;5034774;28;20254;-64
2022/10/09 02:10:18;;;;;;;6.77;2.80;;;;;;;11.98;66.08;101439.53;5033729;28;20232;-64
2022/10/09 02:12:53;;;;;;;6.83;2.37;;;;;;;12.09;65.50;101435.94;5028963;28;20227;-64
2022/10/09 02:15:23;;;;;;;8.37;2.80;;;;;;;12.13;65.16;101440.88;5036596;28;20262;-65
2022/10/09 02:17:54;;;;;;;8.70;3.50;;;;;;;12.15;65.21;101436.25;5031281;28;20211;-64
2022/10/09 02:20:27;;;;;;;6.70;2.83;;;;;;;12.07;65.43;101433.41;5028681;28;20244;-64
2022/10/09 02:22:57;;;;;;;7.60;3.00;;;;;;;11.97;65.75;101435.19;5030809;28;20547;-63
2022/10/09 02:25:25;;;;;;;5.60;2.60;;;;;;;11.98;65.88;101428.91;5037767;28;20723;-64
2022/10/09 02:27:55;;;;;;;7.43;3.50;;;;;;;11.96;66.01;101425.56;5033330;28;20212;-64
2022/10/09 02:30:26;;;;;;;5.60;2.77;;;;;;;11.93;66.09;101431.97;5037286;28;20614;-64
2022/10/09 02:32:54;;;;;;;11.17;3.00;;;;;;;11.94;65.99;101432.81;5032120;28;20238;-64
2022/10/09 02:35:22;;;;;;;7.10;2.70;;;;;;;11.91;66.14;101425.09;5030408;28;20223;-64
2022/10/09 02:37:49;;;;;;;9.53;3.03;;;;;;;11.91;66.14;101433.06;5031649;28;20735;-63
2022/10/09 02:40:17;;;;;;;11.20;3.07;;;;;;;11.86;66.47;101422.03;5034141;28;20230;-64
2022/10/09 02:42:45;;;;;;;4.83;2.37;;;;;;;11.84;66.58;101426.63;5035318;28;20681;-63
2022/10/09 02:45:14;;;;;;;7.33;2.73;;;;;;;11.84;66.72;101431.94;5032691;28;20208;-63
2022/10/09 02:47:42;;;;;;;5.93;3.10;;;;;;;11.85;66.96;101436.28;5036464;28;20586;-64
2022/10/09 02:50:10;;;;;;;6.13;2.50;;;;;;;11.86;66.55;101422.03;5036179;28;20228;-63
2022/10/09 02:52:37;;;;;;;7.97;2.80;;;;;;;11.82;66.45;101432.06;5031095;28;20233;-63
2022/10/09 02:55:05;;;;;;;8.50;3.27;;;;;;;11.82;66.87;101425.91;5034263;28;20262;-63
2022/10/09 02:57:33;;;;;;;6.77;3.00;;;;;;;11.79;66.71;101423.50;5037975;28;20281;-64
2022/10/09 03:00:00;;;;;;;9.90;3.20;;;;;;;11.80;66.76;101433.16;5037480;28;20890;-64
2022/10/09 03:02:29;;;;;;;13.47;3.03;;;;;;;11.81;66.51;101427.72;5030634;28;20217;-63
2022/10/09 03:04:57;;;;;;;7.23;3.23;;;;;;;11.80;66.69;101431.34;5035813;28;20225;-63
2022/10/09 03:07:25;;;;;;;6.93;3.13;;;;;;;11.80;66.78;101425.19;5030135;28;20209;-63
2022/10/09 03:09:53;;;;;;;6.00;2.80;;;;;;;11.76;66.73;101429.09;5028902;28;20224;-63
2022/10/09 03:12:21;;;;;;;7.93;2.60;;;;;;;11.74;66.56;101423.03;5030445;28;20240;-63
2022/10/09 03:14:48;;;;;;;9.80;3.10;;;;;;;11.73;66.61;101424.00;5030480;28;20220;-63
2022/10/09 03:17:16;;;;;;;5.80;3.00;;;;;;;11.66;67.04;101423.69;5036087;28;20601;-63
2022/10/09 03:19:45;;;;;;;8.67;3.00;;;;;;;11.64;67.42;101426.47;5027486;28;20230;-64
2022/10/09 03:22:13;;;;;;;8.30;3.17;;;;;;;11.69;67.24;101418.97;5026997;28;20706;-64
2022/10/09 03:24:40;;;;;;;8.80;3.13;;;;;;;11.68;67.12;101422.59;5031103;28;20213;-63
2022/10/09 03:27:08;;;;;;;9.60;3.53;;;;;;;11.68;67.48;101422.59;5029264;28;20220;-63
2022/10/09 03:29:36;;;;;;;8.40;3.27;;;;;;;11.64;67.66;101430.94;5029719;28;20298;-64
2022/10/09 03:32:03;;;;;;;10.30;3.17;;;;;;;11.63;67.53;101427.44;5033276;28;20215;-64
2022/10/09 03:34:31;;;;;;;6.80;2.67;;;;;;;11.64;67.89;101426.47;5024771;28;20220;-64
2022/10/09 03:37:00;;;;;;;6.80;3.40;;;;;;;11.72;67.56;101432.94;5029124;28;20215;-63
2022/10/09 03:39:28;;;;;;;8.63;3.23;;;;;;;11.69;67.94;101413.66;5027461;28;20211;-64
2022/10/09 03:41:55;;;;;;;8.43;3.47;;;;;;;11.72;67.81;101422.31;5032885;28;20205;-64
2022/10/09 03:44:23;;;;;;;9.43;3.27;;;;;;;11.73;67.64;101421.34;5036180;28;20208;-63
2022/10/09 03:46:51;;;;;;;7.17;3.03;;;;;;;11.65;67.70;101422.84;5035891;28;20843;-63
2022/10/09 03:49:19;;;;;;;6.33;3.50;;;;;;;11.60;67.87;101425.09;5037211;28;20243;-64
2022/10/09 03:51:46;;;;;;;7.87;3.60;;;;;;;11.61;67.80;101429.38;5028627;28;20307;-64
2022/10/09 03:54:15;;;;;;;7.97;3.63;;;;;;;11.64;67.83;101431.78;5028161;28;20258;-63
2022/10/09 03:56:43;;;;;;;10.73;3.97;;;;;;;11.64;67.83;101425.63;5032433;28;20882;-64
2022/10/09 03:59:11;;;;;;;9.67;3.77;;;;;;;11.63;68.21;101430.09;5033371;28;20212;-63
2022/10/09 04:01:39;;;;;;;12.93;6.77;;;;;;;11.62;68.43;101427.56;5029902;28;20200;-64
2022/10/09 04:04:07;;;;;;;12.57;6.10;;;;;;;11.61;68.81;101432.03;5027424;28;20212;-64
2022/10/09 04:06:34;;;;;;;18.03;10.33;;;;;;;11.67;68.51;101428.88;5030803;28;20215;-63
2022/10/09 04:09:02;;;;;;;14.73;7.27;;;;;;;11.73;68.15;101427.50;5030645;28;20230;-63
2022/10/09 04:11:31;;;;;;;13.63;7.17;;;;;;;11.76;67.97;101426.44;5027439;28;20241;-63
2022/10/09 04:13:59;;;;;;;10.67;4.97;;;;;;;11.72;68.18;101432.94;5031682;28;20219;-64
2022/10/09 04:16:27;;;;;;;13.93;4.40;;;;;;;11.65;68.31;101429.97;5028243;28;20222;-63
2022/10/09 04:18:55;;;;;;;11.17;4.37;;;;;;;11.52;68.99;101427.53;5031068;28;20215;-64
2022/10/09 04:21:22;;;;;;;11.13;4.30;;;;;;;11.47;69.28;101432.41;5029519;28;20740;-64
2022/10/09 04:23:51;;;;;;;8.90;4.17;;;;;;;11.47;69.40;101423.59;5031813;28;20701;-64
2022/10/09 04:26:18;;;;;;;10.23;4.60;;;;;;;11.54;68.75;101424.75;5030462;28;20219;-63
2022/10/09 04:28:47;;;;;;;9.90;4.67;;;;;;;11.51;69.06;101431.19;5030005;28;20542;-64
2022/10/09 04:31:15;;;;;;;7.57;4.87;;;;;;;11.51;69.23;101425.03;5024088;28;20570;-63
2022/10/09 04:33:43;;;;;;;14.53;4.50;;;;;;;11.55;68.98;101421.13;5030779;28;20590;-64
2022/10/09 04:36:10;;;;;;;12.10;4.60;;;;;;;11.52;69.20;101422.22;5031453;28;20598;-64
2022/10/09 04:38:38;;;;;;;13.13;4.67;;;;;;;11.57;69.14;101430.66;5028875;28;20665;-63
2022/10/09 04:41:07;;;;;;;7.83;4.37;;;;;;;11.57;69.13;101422.69;5030214;28;20205;-63
2022/10/09 04:43:35;;;;;;;9.57;4.50;;;;;;;11.54;69.30;101425.59;5026132;28;20294;-64
2022/10/09 04:46:10;;;;;;;12.30;4.90;;;;;;;11.47;69.47;101427.09;5028482;28;20782;-64
2022/10/09 04:48:38;;;;;;;10.63;4.93;;;;;;;11.36;70.28;101419.19;5025014;28;20269;-63
2022/10/09 04:51:07;;;;;;;9.90;4.87;;;;;;;11.38;70.25;101419.91;5027179;28;20710;-63
2022/10/09 04:53:36;;;;;;;10.40;5.00;;;;;;;11.42;69.71;101416.03;5026837;28;20269;-63
2022/10/09 04:56:06;;;;;;;8.50;4.83;;;;;;;11.36;70.21;101415.69;5028984;28;20608;-64
2022/10/09 04:58:35;;;;;;;15.10;5.10;;;;;;;11.37;69.99;101406.75;5027873;28;20219;-63
2022/10/09 05:01:07;;;;;;;11.00;4.80;;;;;;;11.38;70.19;101408.44;5027149;28;20212;-65
2022/10/09 05:03:35;;;;;;;12.87;5.07;;;;;;;11.35;70.17;101409.53;5023836;28;20211;-64
2022/10/09 05:06:04;;;;;;;11.37;4.97;;;;;;;11.29;70.57;101410.91;5024220;28;20209;-64
2022/10/09 05:08:32;;;;;;;19.27;5.20;;;;;;;11.29;70.50;101400.28;5029745;28;20260;-65
2022/10/09 05:11:00;;;;;;;10.30;4.87;;;;;;;11.33;70.37;101408.84;5029838;28;20273;-65
2022/10/09 05:13:29;;;;;;;12.13;5.07;;;;;;;11.29;70.70;101410.06;5028210;28;20228;-64
2022/10/09 05:16:01;;;;;;;8.80;4.83;;;;;;;11.31;70.72;101416.09;5029168;28;20422;-64
2022/10/09 05:18:30;;;;;;;10.47;4.70;;;;;;;11.31;70.79;101414.28;5033785;28;20220;-65
2022/10/09 05:20:58;;;;;;;10.17;4.97;;;;;;;11.38;70.30;101419.91;5030941;28;20263;-65
2022/10/09 05:23:26;;;;;;;11.40;4.90;;;;;;;11.36;70.35;101416.53;5030896;28;20212;-64
2022/10/09 05:25:55;;;;;;;12.20;5.53;;;;;;;11.29;70.69;101420.69;5030691;28;20664;-65
2022/10/09 05:28:22;;;;;;;10.20;4.87;;;;;;;11.22;71.15;101425.66;5036249;28;20246;-64
2022/10/09 05:30:51;;;;;;;10.40;4.50;;;;;;;11.27;70.79;101422.63;5035554;28;20759;-64
2022/10/09 05:33:18;;;;;;;10.77;4.60;;;;;;;11.27;70.75;101423.47;5038521;28;20219;-65
2022/10/09 05:35:55;;;;;;;8.23;4.03;;;;;;;11.34;70.15;101428.28;5038070;28;20641;-64
2022/10/09 05:38:24;;;;;;;8.90;4.70;;;;;;;11.23;70.57;101424.69;5035688;28;20608;-64
2022/10/09 05:40:52;;;;;;;11.63;5.60;;;;;;;11.16;70.89;101430.66;5034972;28;20208;-64
2022/10/09 05:43:20;;;;;;;9.27;5.33;;;;;;;11.07;71.06;101423.47;5033137;28;20258;-64
2022/10/09 05:45:48;;;;;;;11.13;5.27;;;;;;;11.05;71.36;101426.25;5032757;28;20261;-63
2022/10/09 05:48:15;;;;;;;10.43;5.00;;;;;;;11.04;71.29;101434.31;5039125;28;20210;-63
2022/10/09 05:50:43;;;;;;;14.47;6.10;;;;;;;10.97;71.38;101427.84;5033758;28;20231;-63
2022/10/09 05:53:13;;;;;;;8.53;4.90;;;;;;;10.99;71.40;101423.28;5035470;28;20263;-63
2022/10/09 05:55:40;;;;;;;9.83;4.67;;;;;;;10.93;71.51;101421.94;5036434;28;20212;-65
2022/10/09 05:58:08;;;;;;;10.57;5.00;;;;;;;10.92;71.70;101422.91;5035886;28;20632;-64
2022/10/09 06:00:35;;;;;;;9.60;4.60;;;;;;;10.93;71.53;101425.44;5034325;28;20205;-64
2022/10/09 06:03:03;;;;;;;8.53;5.33;;;;;;;11.03;71.22;101422.88;5034198;28;20224;-64
2022/10/09 06:05:31;;;;;;;12.60;5.23;;;;;;;11.01;71.28;101423.97;5033941;28;20656;-64
2022/10/09 06:07:58;;;;;;;8.67;4.87;;;;;;;11.04;71.15;101421.06;5035138;28;20214;-64
2022/10/09 06:10:27;;;;;;;10.90;5.73;;;;;;;11.07;70.95;101426.97;5033541;28;20260;-64
2022/10/09 06:12:59;;;;;;;9.03;4.87;;;;;;;11.10;70.83;101421.38;5033876;28;20290;-64
2022/10/09 06:15:26;;;;;;;7.67;4.67;;;;;;;11.10;70.68;101428.50;5032283;28;20214;-64
2022/10/09 06:17:54;;;;;;;8.97;4.80;;;;;;;10.90;71.62;101431.03;5037167;28;20214;-60
2022/10/09 06:20:22;;;;;;;10.13;4.60;;;;;;;11.07;71.33;101434.09;5031961;28;20273;-61
2022/10/09 06:22:50;;;;;;;8.37;4.80;;;;;;;11.10;71.11;101431.16;5027776;28;20268;-61
2022/10/09 06:25:18;;;;;;;8.73;4.50;;;;;;;11.08;71.22;101425.97;5030064;28;20257;-61
2022/10/09 06:27:47;;;;;;;11.03;5.20;;;;;;;11.12;71.41;101426.56;5037217;28;20579;-61
2022/10/09 06:30:15;;;;;;;7.33;5.17;;;;;;;11.24;70.75;101431.69;5037823;28;20231;-61
2022/10/09 06:32:42;;;;;;;11.27;5.80;;;;;;;11.22;70.78;101433.63;5041268;28;20214;-61
2022/10/09 06:35:10;;;;;;;10.30;5.53;;;;;;;11.27;70.55;101439.38;5038916;28;20214;-61
2022/10/09 06:37:37;;;;;;;8.30;5.00;;;;;;;11.33;70.40;101432.75;5040362;28;20206;-62
2022/10/09 06:40:06;;;;;;;8.67;4.77;;;;;;;11.39;70.13;101431.38;5043460;28;20288;-61
2022/10/09 06:42:33;;;;;;;9.03;5.17;;;;;;;11.44;69.84;101430.00;5041445;28;20676;-61
2022/10/09 06:45:02;;;;;;;6.47;5.23;;;;;;;11.45;69.89;101442.31;5039123;28;20390;-61
2022/10/09 06:47:30;;;;;;;8.80;5.13;;;;;;;11.44;69.93;101435.31;5037280;28;20662;-61
2022/10/09 06:49:58;;;;;;;9.33;5.43;;;;;;;11.51;69.94;101431.19;5038885;28;20217;-60
2022/10/09 06:52:25;;;;;;;10.00;5.30;;;;;;;11.60;69.48;101430.41;5037808;28;20276;-61
2022/10/09 06:54:53;;;;;;;10.63;5.37;;;;;;;11.58;69.55;101429.69;5038620;28;20285;-60
2022/10/09 06:57:20;;;;;;;9.40;5.50;;;;;;;11.56;70.05;101441.41;5035596;28;20215;-60
2022/10/09 06:59:49;;;;;;;10.70;5.63;;;;;;;11.56;70.44;101439.59;5033640;28;20209;-61
2022/10/09 07:02:18;;;;;;;11.63;6.10;;;;;;;11.61;70.34;101433.88;5037026;28;20220;-62
2022/10/09 07:04:47;;;;;;;11.40;6.07;;;;;;;11.63;70.04;101431.91;5031714;28;20211;-61
2022/10/09 07:07:14;;;;;;;11.33;6.40;;;;;;;11.55;70.97;101437.91;5034881;28;20692;-61
2022/10/09 07:09:42;;;;;;;10.53;5.40;;;;;;;11.52;71.18;101440.00;5035144;28;20213;-61
2022/10/09 07:12:09;;;;;;;12.17;5.70;;;;;;;11.60;71.11;101446.34;5035553;28;20283;-62
2022/10/09 07:14:37;;;;;;;14.70;6.23;;;;;;;11.58;71.35;101442.97;5033512;28;20669;-61
2022/10/09 07:17:05;;;;;;;11.80;6.37;;;;;;;11.55;72.02;101435.25;5030776;28;20215;-62
2022/10/09 07:19:34;;;;;;;12.43;6.80;;;;;;;11.59;71.79;101443.81;5034362;28;20222;-62
2022/10/09 07:22:02;;;;;;;11.37;5.87;;;;;;;11.61;72.21;101441.84;5027447;28;20249;-61
2022/10/09 07:24:29;;;;;;;12.40;6.13;;;;;;;11.61;72.07;101445.34;5033504;28;20210;-60
2022/10/09 07:26:57;;;;;;;12.73;6.90;;;;;;;11.70;71.71;101436.56;5034009;28;20296;-61
2022/10/09 07:29:24;;;;;;;11.03;5.73;;;;;;;11.73;71.62;101437.28;5030670;28;20582;-62
2022/10/09 07:31:52;;;;;;;11.33;6.60;;;;;;;11.84;71.21;101435.44;5028967;28;20823;-60
2022/10/09 07:34:20;;;;;;;11.33;6.20;;;;;;;11.91;70.86;101438.41;5037505;28;20205;-61
2022/10/09 07:36:49;;;;;;;12.13;5.47;;;;;;;11.97;70.74;101438.69;5026440;28;20609;-60
2022/10/09 07:39:18;;;;;;;11.33;5.30;;;;;;;12.13;69.83;101442.69;5033350;28;20225;-59
2022/10/09 07:41:46;;;;;;;9.83;5.70;;;;;;;12.20;69.23;101428.72;5031816;28;20211;-61
2022/10/09 07:44:14;;;;;;;11.03;5.67;;;;;;;12.29;69.06;101440.38;5026934;28;20209;-62
2022/10/09 07:46:41;;;;;;;13.10;5.90;;;;;;;12.35;68.62;101427.34;5031260;28;20211;-60
2022/10/09 07:49:09;;;;;;;8.53;5.33;;;;;;;12.41;68.74;101421.47;5027830;28;20460;-61
2022/10/09 07:51:37;;;;;;;9.17;5.63;;;;;;;12.50;68.57;101426.94;5031542;28;20243;-61
2022/10/09 07:54:06;;;;;;;8.23;5.73;;;;;;;12.54;68.55;101425.72;5030649;28;20215;-61
2022/10/09 07:56:36;;;;;;;10.07;4.47;;;;;;;12.58;68.48;101417.31;5030336;28;20304;-61
2022/10/09 07:59:06;;;;;;;8.53;5.00;;;;;;;12.64;67.96;101424.75;5035737;28;20203;-61
2022/10/09 08:01:35;;;;;;;11.80;5.23;;;;;;;12.70;68.28;101421.53;5029081;28;20548;-62
2022/10/09 08:04:03;;;;;;;13.03;5.83;;;;;;;12.75;68.15;101419.28;5032448;28;20842;-61
2022/10/09 08:06:32;;;;;;;10.00;4.80;;;;;;;12.79;68.12;101420.69;5026177;28;20208;-62
2022/10/09 08:09:01;;;;;;;12.10;5.17;;;;;;;12.85;67.97;101426.44;5028840;28;20204;-61
2022/10/09 08:11:30;;;;;;;9.33;5.23;;;;;;;12.88;68.09;101427.00;5030616;28;20290;-61
2022/10/09 08:13:59;;;;;;;12.57;4.80;;;;;;;12.94;68.07;101423.78;5035875;28;20590;-61
2022/10/09 08:16:27;;;;;;;11.97;5.17;;;;;;;12.99;68.01;101424.22;5033032;28;20208;-61
2022/10/09 08:18:57;;;;;;;10.03;5.10;;;;;;;13.07;67.85;101413.69;5029035;28;20211;-61
2022/10/09 08:21:26;;;;;;;9.27;4.77;;;;;;;13.16;67.25;101428.00;5033429;28;20240;-62
2022/10/09 08:23:56;;;;;;;7.07;4.60;;;;;;;13.18;66.98;101416.25;5035193;28;20205;-62
2022/10/09 08:26:24;;;;;;;8.90;4.63;;;;;;;13.24;66.94;101416.66;5029156;28;20685;-62
2022/10/09 08:28:56;;;;;;;10.00;4.67;;;;;;;13.36;66.65;101419.03;5030275;28;20208;-61
2022/10/09 08:31:24;;;;;;;7.17;4.83;;;;;;;13.45;66.46;101409.31;5030559;28;20240;-61
2022/10/09 08:33:53;;;;;;;7.23;4.07;;;;;;;13.58;66.83;101407.16;5035568;28;20208;-62
2022/10/09 08:36:21;;;;;;;9.03;5.10;;;;;;;13.73;66.21;101408.38;5029869;28;20205;-62
2022/10/09 08:38:50;;;;;;;10.83;4.33;;;;;;;14.05;65.29;101415.13;5027315;28;20258;-61
2022/10/09 08:41:27;;;;;;;9.33;4.60;;;;;;;14.11;64.82;101409.22;5028442;28;20689;-61
2022/10/09 08:44:02;;;;;;;11.23;5.43;;;;;;;14.24;64.13;101404.38;5030562;28;20210;-61
2022/10/09 08:46:34;;;;;;;11.00;4.87;;;;;;;14.66;63.85;101402.00;5028730;28;20204;-61
2022/10/09 08:49:05;;;;;;;8.63;4.63;;;;;;;15.39;60.86;101407.97;5036414;28;20302;-61
2022/10/09 08:51:37;;;;;;;9.40;4.33;;;;;;;17.43;55.60;101404.88;5027081;28;20784;-62
2022/10/09 08:54:15;;;;;;;8.80;4.30;;;;;;;20.90;45.50;101388.63;5030307;28;20635;-62
2022/10/09 08:56:44;;;;;;;8.83;4.50;;;;;;;22.04;42.65;101385.53;5029148;28;20730;-61
2022/10/09 08:59:13;;;;;;;7.37;4.07;;;;;;;23.31;40.04;101382.88;5028531;28;20216;-61
2022/10/09 09:01:48;;;;;;;6.25;3.72;;;;;;;25.30;35.89;101379.03;5030001;28;20205;-60
2022/10/09 09:04:31;;;;;;;8.00;4.07;;;;;;;25.58;34.82;101377.72;5030095;28;20576;-61
2022/10/09 09:07:11;;;;;;;9.45;4.30;;;;;;;24.10;37.57;101373.75;5029951;28;20235;-61
2022/10/09 09:09:51;;;;;;;7.43;3.63;;;;;;;22.51;40.01;101384.69;5024783;28;20212;-61
2022/10/09 09:12:27;;;;;;;11.82;4.20;;;;;;;21.15;42.78;101380.97;5029840;28;20240;-61
2022/10/09 09:15:13;;;;;;;7.68;3.70;;;;;;;20.07;44.87;101370.28;5031589;28;20654;-62
2022/10/09 09:17:46;;;;;;;7.78;3.65;;;;;;;19.18;46.99;101375.63;5030911;28;20201;-61
2022/10/09 09:20:22;;;;;;;6.15;3.60;;;;;;;18.71;48.34;101372.34;5030999;28;20215;-63
2022/10/09 09:22:50;;;;;;;8.80;3.88;;;;;;;18.34;49.62;101360.47;5027245;28;20696;-62
2022/10/09 09:25:21;;;;;;;13.60;3.90;;;;;;;18.06;50.14;101367.31;5033802;28;20213;-62
2022/10/09 09:27:51;;;;;;;11.63;4.50;;;;;;;17.86;51.03;101366.91;5031509;28;20633;-61
2022/10/09 09:30:24;;;;;;;7.10;4.27;;;;;;;17.78;51.62;101361.56;5036978;28;20214;-62
2022/10/09 09:33:00;;;;;;;11.10;4.47;;;;;;;17.73;52.32;101361.25;5041645;28;20736;-60
2022/10/09 09:35:35;;;;;;;5.93;3.80;;;;;;;17.88;51.69;101350.63;5035717;28;20228;-60
2022/10/09 09:38:03;;;;;;;7.77;3.73;;;;;;;18.11;51.76;101338.13;5027512;28;20200;-61
2022/10/09 09:40:34;;;;;;;8.17;4.33;;;;;;;18.39;50.94;101341.13;5032758;28;20220;-63
2022/10/09 09:43:13;;;;;;;10.40;4.10;;;;;;;18.92;49.59;101339.41;5034636;28;20225;-62
2022/10/09 09:45:43;;;;;;;7.57;3.65;;;;;;;19.33;48.48;101331.81;5032192;28;20207;-60
2022/10/09 09:48:15;;;;;;;8.68;3.67;;;;;;;19.28;48.41;101331.50;5026512;28;20216;-61
2022/10/09 09:50:44;;;;;;;9.10;4.05;;;;;;;18.91;49.02;101322.44;5030445;28;20219;-61
2022/10/09 09:53:34;;;;;;;9.75;3.92;;;;;;;18.47;50.22;101321.47;5030334;28;20338;-60
2022/10/09 09:56:03;;;;;;;10.43;3.80;;;;;;;18.15;51.49;101326.00;5038072;28;20208;-60
2022/10/09 09:58:35;;;;;;;6.60;3.10;;;;;;;17.83;52.68;101323.50;5032608;28;20547;-61
2022/10/09 10:01:06;;;;;;;11.57;3.50;;;;;;;17.61;53.23;101320.53;5028535;28;20221;-61
2022/10/09 10:03:35;;;;;;;10.13;3.53;;;;;;;17.47;53.43;101315.91;5031028;28;20628;-62
2022/10/09 10:06:04;;;;;;;5.53;2.77;;;;;;;17.35;53.69;101314.59;5031081;28;20212;-62
2022/10/09 10:08:34;;;;;;;13.83;4.00;;;;;;;17.40;54.03;101312.25;5031679;28;20208;-62
2022/10/09 10:11:05;;;;;;;8.43;3.03;;;;;;;17.47;54.94;101312.38;5030642;28;20209;-61
2022/10/09 10:13:36;;;;;;;9.10;4.33;;;;;;;17.46;54.80;101300.81;5033214;28;20228;-62
2022/10/09 10:16:07;;;;;;;6.67;3.43;;;;;;;17.39;55.01;101299.84;5034078;28;20216;-62
2022/10/09 10:18:40;;;;;;;9.43;4.20;;;;;;;17.36;55.59;101293.97;5030475;28;20231;-61
2022/10/09 10:21:12;;;;;;;7.53;3.10;;;;;;;17.33;55.85;101289.78;5027912;28;20239;-61
2022/10/09 10:23:44;;;;;;;6.87;3.30;;;;;;;17.34;56.02;101290.63;5028104;28;20327;-62
2022/10/09 10:26:22;;;;;;;8.67;3.17;;;;;;;17.42;54.68;101282.53;5028537;28;20224;-62
2022/10/09 10:28:54;;;;;;;7.17;3.33;;;;;;;17.38;54.00;101279.41;5029004;28;20207;-61
2022/10/09 10:31:35;;;;;;;11.43;5.40;;;;;;;17.45;54.16;101275.00;5030587;28;20212;-62
2022/10/09 10:34:08;;;;;;;23.83;4.83;;;;;;;18.94;51.98;101264.81;5031651;28;20857;-62
2022/10/09 10:36:36;;;;;;;12.30;3.70;;;;;;;19.60;50.02;101257.72;5031308;28;21273;-61
2022/10/09 10:39:12;;;;;;;13.33;3.17;;;;;;;19.42;48.70;101256.22;5040520;28;20855;-61
2022/10/09 10:41:45;;;;;;;5.67;2.47;;;;;;;19.01;49.09;101250.44;5033682;28;20216;-62
2022/10/09 10:44:21;;;;;;;7.73;3.20;;;;;;;18.79;50.60;101252.19;5032139;28;20209;-61
2022/10/09 10:46:55;;;;;;;6.93;3.20;;;;;;;18.68;50.13;101243.75;5037666;28;20212;-62
2022/10/09 10:49:23;;;;;;;7.90;3.10;;;;;;;18.49;50.63;101241.53;5029056;28;20598;-60
2022/10/09 10:52:03;;;;;;;11.37;3.70;;;;;;;18.35;51.55;101241.31;5034399;28;20212;-60
2022/10/09 10:54:37;;;;;;;8.50;3.00;;;;;;;18.32;51.69;101238.97;5036638;28;20338;-62
2022/10/09 10:57:14;;;;;;;7.93;2.83;;;;;;;18.43;50.50;101224.28;5031596;28;20212;-62
2022/10/09 10:59:52;;;;;;;6.10;2.90;;;;;;;18.35;50.63;101227.06;5038932;28;20210;-62
2022/10/09 11:02:53;;;;;;;6.27;2.63;;;;;;;18.35;51.51;101227.06;5034441;28;20296;-62
2022/10/09 11:05:46;;;;;;;6.13;2.80;;;;;;;18.54;51.38;101220.34;5033831;28;20687;-61
2022/10/09 11:08:33;;;;;;;4.90;1.87;;;;;;;18.89;45.62;101218.84;5032862;28;20197;-63
2022/10/09 11:11:06;;;;;;;2.93;1.60;;;;;;;19.63;43.88;101217.81;5037259;28;20223;-61
2022/10/09 11:13:44;;;;;;;6.60;1.90;;;;;;;22.61;37.89;101207.72;5033785;28;20216;-62
2022/10/09 11:16:28;;;;;;;8.03;1.67;;;;;;;25.77;31.43;101203.66;5040015;28;20208;-62
2022/10/09 11:19:13;;;;;;;3.63;1.60;;;;;;;27.62;28.05;101190.34;5040156;28;20872;-63
2022/10/09 11:21:51;;;;;;;3.35;1.58;;;;;;;28.78;26.06;101194.28;5039636;28;20720;-63
2022/10/09 11:24:36;;;;;;;6.13;1.75;;;;;;;29.43;24.87;101196.25;5036229;28;20195;-61
2022/10/09 11:27:13;;;;;;;6.53;1.83;;;;;;;28.72;25.12;101189.81;5033741;28;20961;-66
2022/10/09 11:29:46;;;;;;;7.78;2.72;;;;;;;27.59;26.23;101179.13;5034975;28;20226;-65
2022/10/09 11:32:19;;;;;;;10.07;5.78;;;;;;;26.67;27.81;101175.47;5027986;28;20205;-64
2022/10/09 11:34:55;;;;;;;6.30;1.98;;;;;;;25.54;29.90;101176.38;5030118;28;20505;-65
2022/10/09 11:37:27;;;;;;;5.53;1.30;;;;;;;25.01;30.57;101185.16;5033341;28;20218;-66